sensor_id;sensor_type;location;lat;lon;timestamp;P1;durP1;ratioP1;P2;durP2;ratioP2
14118;SDS011;7138;49.246;9.100;2024-01-15T00:00:50;47.47;;;18.10;;
14118;SDS011;7138;49.246;9.100;2024-01-15T00:03:16;51.47;;;20.05;;
14118;SDS011;7138;49.246;9.100;2024-01-15T00:05:42;50.47;;;18.05;;
14118;SDS011;7138;49.246;9.100;2024-01-15T00:08:08;54.08;;;18.88;;
14118;SDS011;7138;49.246;9.100;2024-01-15T00:10:34;52.10;;;19.30;;
14118;SDS011;7138;49.246;9.100;2024-01-15T00:12:59;48.67;;;18.35;;
14118;SDS011;7138;49.246;9.100;2024-01-15T00:15:26;45.35;;;18.35;;
14118;SDS011;7138;49.246;9.100;2024-01-15T00:17:53;47.85;;;18.58;;
14118;SDS011;7138;49.246;9.100;2024-01-15T00:20:19;50.20;;;17.08;;
14118;SDS011;7138;49.246;9.100;2024-01-15T00:22:45;49.17;;;17.13;;
14118;SDS011;7138;49.246;9.100;2024-01-15T00:25:11;50.55;;;18.48;;
14118;SDS011;7138;49.246;9.100;2024-01-15T00:27:36;46.30;;;17.90;;
14118;SDS011;7138;49.246;9.100;2024-01-15T00:30:02;44.17;;;17.45;;
14118;SDS011;7138;49.246;9.100;2024-01-15T00:32:31;51.65;;;18.83;;
14118;SDS011;7138;49.246;9.100;2024-01-15T00:34:56;49.22;;;19.27;;
14118;SDS011;7138;49.246;9.100;2024-01-15T00:37:22;51.38;;;17.98;;
14118;SDS011;7138;49.246;9.100;2024-01-15T00:39:48;55.63;;;18.67;;
14118;SDS011;7138;49.246;9.100;2024-01-15T00:42:14;53.88;;;18.25;;
14118;SDS011;7138;49.246;9.100;2024-01-15T00:44:41;59.83;;;19.92;;
14118;SDS011;7138;49.246;9.100;2024-01-15T00:47:07;51.45;;;18.23;;
14118;SDS011;7138;49.246;9.100;2024-01-15T00:49:34;57.92;;;20.52;;
14118;SDS011;7138;49.246;9.100;2024-01-15T00:52:00;52.88;;;19.70;;
14118;SDS011;7138;49.246;9.100;2024-01-15T00:54:26;54.40;;;20.15;;
14118;SDS011;7138;49.246;9.100;2024-01-15T00:56:52;54.67;;;20.88;;
14118;SDS011;7138;49.246;9.100;2024-01-15T00:59:18;51.47;;;20.73;;
14118;SDS011;7138;49.246;9.100;2024-01-15T01:01:45;56.78;;;21.95;;
14118;SDS011;7138;49.246;9.100;2024-01-15T01:04:12;54.00;;;19.80;;
14118;SDS011;7138;49.246;9.100;2024-01-15T01:06:39;53.88;;;20.30;;
14118;SDS011;7138;49.246;9.100;2024-01-15T01:09:05;53.40;;;19.95;;
14118;SDS011;7138;49.246;9.100;2024-01-15T01:11:31;48.80;;;18.10;;
14118;SDS011;7138;49.246;9.100;2024-01-15T01:13:56;50.85;;;18.98;;
14118;SDS011;7138;49.246;9.100;2024-01-15T01:16:22;54.88;;;18.90;;
14118;SDS011;7138;49.246;9.100;2024-01-15T01:18:48;43.95;;;17.08;;
14118;SDS011;7138;49.246;9.100;2024-01-15T01:21:14;50.60;;;17.67;;
14118;SDS011;7138;49.246;9.100;2024-01-15T01:23:41;42.92;;;17.42;;
14118;SDS011;7138;49.246;9.100;2024-01-15T01:26:07;46.67;;;18.60;;
14118;SDS011;7138;49.246;9.100;2024-01-15T01:28:33;47.08;;;17.85;;
14118;SDS011;7138;49.246;9.100;2024-01-15T01:30:59;48.70;;;17.92;;
14118;SDS011;7138;49.246;9.100;2024-01-15T01:33:25;50.60;;;20.48;;
14118;SDS011;7138;49.246;9.100;2024-01-15T01:35:50;48.45;;;18.60;;
14118;SDS011;7138;49.246;9.100;2024-01-15T01:38:16;43.78;;;17.67;;
14118;SDS011;7138;49.246;9.100;2024-01-15T01:40:43;50.67;;;18.30;;
14118;SDS011;7138;49.246;9.100;2024-01-15T01:43:09;50.20;;;18.25;;
14118;SDS011;7138;49.246;9.100;2024-01-15T01:45:35;45.58;;;17.58;;
14118;SDS011;7138;49.246;9.100;2024-01-15T01:48:01;52.33;;;18.88;;
14118;SDS011;7138;49.246;9.100;2024-01-15T01:50:28;50.50;;;19.33;;
14118;SDS011;7138;49.246;9.100;2024-01-15T01:52:56;44.20;;;16.95;;
14118;SDS011;7138;49.246;9.100;2024-01-15T01:55:23;45.28;;;18.70;;
14118;SDS011;7138;49.246;9.100;2024-01-15T01:57:54;51.83;;;20.17;;
14118;SDS011;7138;49.246;9.100;2024-01-15T02:00:20;58.35;;;20.60;;
14118;SDS011;7138;49.246;9.100;2024-01-15T02:02:47;48.95;;;18.38;;
14118;SDS011;7138;49.246;9.100;2024-01-15T02:05:13;44.40;;;18.48;;
14118;SDS011;7138;49.246;9.100;2024-01-15T02:07:43;46.22;;;16.52;;
14118;SDS011;7138;49.246;9.100;2024-01-15T02:10:09;45.80;;;17.55;;
14118;SDS011;7138;49.246;9.100;2024-01-15T02:12:35;45.55;;;17.77;;
14118;SDS011;7138;49.246;9.100;2024-01-15T02:15:03;46.33;;;18.45;;
14118;SDS011;7138;49.246;9.100;2024-01-15T02:17:29;45.83;;;17.17;;
14118;SDS011;7138;49.246;9.100;2024-01-15T02:19:55;50.35;;;18.90;;
14118;SDS011;7138;49.246;9.100;2024-01-15T02:22:21;42.25;;;15.70;;
14118;SDS011;7138;49.246;9.100;2024-01-15T02:24:48;42.42;;;16.33;;
14118;SDS011;7138;49.246;9.100;2024-01-15T02:27:14;42.05;;;16.73;;
14118;SDS011;7138;49.246;9.100;2024-01-15T02:29:40;47.97;;;18.10;;
14118;SDS011;7138;49.246;9.100;2024-01-15T02:32:06;47.17;;;17.05;;
14118;SDS011;7138;49.246;9.100;2024-01-15T02:34:34;43.10;;;16.88;;
14118;SDS011;7138;49.246;9.100;2024-01-15T02:37:00;41.83;;;16.83;;
14118;SDS011;7138;49.246;9.100;2024-01-15T02:39:26;42.85;;;16.83;;
14118;SDS011;7138;49.246;9.100;2024-01-15T02:41:55;44.75;;;16.90;;
14118;SDS011;7138;49.246;9.100;2024-01-15T02:44:22;43.70;;;17.60;;
14118;SDS011;7138;49.246;9.100;2024-01-15T02:46:48;40.05;;;16.67;;
14118;SDS011;7138;49.246;9.100;2024-01-15T02:49:14;46.28;;;17.23;;
14118;SDS011;7138;49.246;9.100;2024-01-15T02:51:40;47.85;;;18.08;;
14118;SDS011;7138;49.246;9.100;2024-01-15T02:54:06;45.45;;;16.85;;
14118;SDS011;7138;49.246;9.100;2024-01-15T02:56:32;41.28;;;16.02;;
14118;SDS011;7138;49.246;9.100;2024-01-15T02:58:59;45.13;;;16.63;;
14118;SDS011;7138;49.246;9.100;2024-01-15T03:01:25;42.15;;;15.95;;
14118;SDS011;7138;49.246;9.100;2024-01-15T03:03:51;48.65;;;17.35;;
14118;SDS011;7138;49.246;9.100;2024-01-15T03:06:17;45.70;;;17.65;;
14118;SDS011;7138;49.246;9.100;2024-01-15T03:08:42;38.42;;;16.52;;
14118;SDS011;7138;49.246;9.100;2024-01-15T03:11:08;46.58;;;17.20;;
14118;SDS011;7138;49.246;9.100;2024-01-15T03:13:35;43.83;;;16.92;;
14118;SDS011;7138;49.246;9.100;2024-01-15T03:16:03;39.20;;;16.13;;
14118;SDS011;7138;49.246;9.100;2024-01-15T03:18:29;46.92;;;17.05;;
14118;SDS011;7138;49.246;9.100;2024-01-15T03:20:55;41.13;;;16.63;;
14118;SDS011;7138;49.246;9.100;2024-01-15T03:23:21;50.05;;;18.23;;
14118;SDS011;7138;49.246;9.100;2024-01-15T03:25:47;48.45;;;17.40;;
14118;SDS011;7138;49.246;9.100;2024-01-15T03:28:13;43.10;;;16.25;;
14118;SDS011;7138;49.246;9.100;2024-01-15T03:30:38;42.78;;;17.10;;
14118;SDS011;7138;49.246;9.100;2024-01-15T03:33:05;42.78;;;16.10;;
14118;SDS011;7138;49.246;9.100;2024-01-15T03:35:31;44.13;;;17.02;;
14118;SDS011;7138;49.246;9.100;2024-01-15T03:37:57;37.20;;;15.60;;
14118;SDS011;7138;49.246;9.100;2024-01-15T03:40:23;41.45;;;16.08;;
14118;SDS011;7138;49.246;9.100;2024-01-15T03:42:49;39.97;;;16.73;;
14118;SDS011;7138;49.246;9.100;2024-01-15T03:45:14;42.40;;;16.13;;
14118;SDS011;7138;49.246;9.100;2024-01-15T03:47:40;44.78;;;15.95;;
14118;SDS011;7138;49.246;9.100;2024-01-15T03:50:08;38.10;;;14.82;;
14118;SDS011;7138;49.246;9.100;2024-01-15T03:52:34;43.60;;;16.00;;
14118;SDS011;7138;49.246;9.100;2024-01-15T03:55:00;43.92;;;17.52;;
14118;SDS011;7138;49.246;9.100;2024-01-15T03:57:26;38.00;;;15.63;;
14118;SDS011;7138;49.246;9.100;2024-01-15T03:59:52;39.92;;;16.20;;
14118;SDS011;7138;49.246;9.100;2024-01-15T04:02:17;43.42;;;16.63;;
14118;SDS011;7138;49.246;9.100;2024-01-15T04:04:43;39.22;;;16.25;;
14118;SDS011;7138;49.246;9.100;2024-01-15T04:07:10;41.95;;;16.15;;
14118;SDS011;7138;49.246;9.100;2024-01-15T04:09:37;41.55;;;15.05;;
14118;SDS011;7138;49.246;9.100;2024-01-15T04:12:03;38.75;;;16.42;;
14118;SDS011;7138;49.246;9.100;2024-01-15T04:14:30;37.72;;;15.45;;
14118;SDS011;7138;49.246;9.100;2024-01-15T04:16:55;41.28;;;17.50;;
14118;SDS011;7138;49.246;9.100;2024-01-15T04:19:21;38.55;;;15.70;;
14118;SDS011;7138;49.246;9.100;2024-01-15T04:21:47;42.28;;;17.05;;
14118;SDS011;7138;49.246;9.100;2024-01-15T04:24:14;39.30;;;15.30;;
14118;SDS011;7138;49.246;9.100;2024-01-15T04:26:43;41.10;;;15.65;;
14118;SDS011;7138;49.246;9.100;2024-01-15T04:29:08;39.95;;;16.63;;
14118;SDS011;7138;49.246;9.100;2024-01-15T04:31:34;44.33;;;16.77;;
14118;SDS011;7138;49.246;9.100;2024-01-15T04:34:00;42.13;;;16.63;;
14118;SDS011;7138;49.246;9.100;2024-01-15T04:36:26;36.88;;;15.57;;
14118;SDS011;7138;49.246;9.100;2024-01-15T04:38:52;40.05;;;15.93;;
14118;SDS011;7138;49.246;9.100;2024-01-15T04:41:19;40.63;;;16.73;;
14118;SDS011;7138;49.246;9.100;2024-01-15T04:43:45;42.35;;;16.05;;
14118;SDS011;7138;49.246;9.100;2024-01-15T04:46:11;39.40;;;15.02;;
14118;SDS011;7138;49.246;9.100;2024-01-15T04:48:36;41.75;;;16.45;;
14118;SDS011;7138;49.246;9.100;2024-01-15T04:51:03;38.63;;;14.57;;
14118;SDS011;7138;49.246;9.100;2024-01-15T04:53:31;34.88;;;13.50;;
14118;SDS011;7138;49.246;9.100;2024-01-15T04:55:57;39.33;;;16.27;;
14118;SDS011;7138;49.246;9.100;2024-01-15T04:58:24;39.95;;;16.73;;
14118;SDS011;7138;49.246;9.100;2024-01-15T05:00:51;38.83;;;14.90;;
14118;SDS011;7138;49.246;9.100;2024-01-15T05:03:17;38.63;;;16.23;;
14118;SDS011;7138;49.246;9.100;2024-01-15T05:05:43;41.70;;;16.63;;
14118;SDS011;7138;49.246;9.100;2024-01-15T05:08:09;37.35;;;15.60;;
14118;SDS011;7138;49.246;9.100;2024-01-15T05:10:35;38.10;;;14.23;;
14118;SDS011;7138;49.246;9.100;2024-01-15T05:13:00;37.58;;;15.88;;
14118;SDS011;7138;49.246;9.100;2024-01-15T05:15:28;36.38;;;15.20;;
14118;SDS011;7138;49.246;9.100;2024-01-15T05:17:54;40.92;;;15.60;;
14118;SDS011;7138;49.246;9.100;2024-01-15T05:20:20;36.50;;;14.40;;
14118;SDS011;7138;49.246;9.100;2024-01-15T05:22:46;37.88;;;14.25;;
14118;SDS011;7138;49.246;9.100;2024-01-15T05:25:12;37.00;;;15.00;;
14118;SDS011;7138;49.246;9.100;2024-01-15T05:27:38;38.80;;;15.13;;
14118;SDS011;7138;49.246;9.100;2024-01-15T05:30:04;35.85;;;14.82;;
14118;SDS011;7138;49.246;9.100;2024-01-15T05:32:32;38.25;;;15.35;;
14118;SDS011;7138;49.246;9.100;2024-01-15T05:34:58;38.38;;;15.07;;
14118;SDS011;7138;49.246;9.100;2024-01-15T05:37:24;35.17;;;15.02;;
14118;SDS011;7138;49.246;9.100;2024-01-15T05:39:50;36.17;;;16.13;;
14118;SDS011;7138;49.246;9.100;2024-01-15T05:42:16;36.85;;;14.82;;
14118;SDS011;7138;49.246;9.100;2024-01-15T05:44:41;34.90;;;14.68;;
14118;SDS011;7138;49.246;9.100;2024-01-15T05:47:07;36.22;;;14.82;;
14118;SDS011;7138;49.246;9.100;2024-01-15T05:49:34;35.60;;;14.48;;
14118;SDS011;7138;49.246;9.100;2024-01-15T05:52:01;36.03;;;14.98;;
14118;SDS011;7138;49.246;9.100;2024-01-15T05:54:27;39.75;;;14.98;;
14118;SDS011;7138;49.246;9.100;2024-01-15T05:56:52;36.60;;;15.80;;
14118;SDS011;7138;49.246;9.100;2024-01-15T05:59:18;40.92;;;17.17;;
14118;SDS011;7138;49.246;9.100;2024-01-15T06:01:44;36.45;;;15.05;;
14118;SDS011;7138;49.246;9.100;2024-01-15T06:04:10;38.17;;;14.82;;
14118;SDS011;7138;49.246;9.100;2024-01-15T06:06:37;37.05;;;14.63;;
14118;SDS011;7138;49.246;9.100;2024-01-15T06:09:03;37.40;;;15.38;;
14118;SDS011;7138;49.246;9.100;2024-01-15T06:11:30;36.20;;;15.00;;
14118;SDS011;7138;49.246;9.100;2024-01-15T06:13:56;39.33;;;15.80;;
14118;SDS011;7138;49.246;9.100;2024-01-15T06:16:23;37.90;;;15.20;;
14118;SDS011;7138;49.246;9.100;2024-01-15T06:18:49;36.85;;;15.45;;
14118;SDS011;7138;49.246;9.100;2024-01-15T06:21:15;34.92;;;14.68;;
14118;SDS011;7138;49.246;9.100;2024-01-15T06:23:42;37.70;;;15.43;;
14118;SDS011;7138;49.246;9.100;2024-01-15T06:26:08;35.00;;;15.27;;
14118;SDS011;7138;49.246;9.100;2024-01-15T06:28:36;37.80;;;15.38;;
14118;SDS011;7138;49.246;9.100;2024-01-15T06:31:02;36.38;;;14.48;;
14118;SDS011;7138;49.246;9.100;2024-01-15T06:33:29;35.95;;;14.55;;
14118;SDS011;7138;49.246;9.100;2024-01-15T06:35:55;38.47;;;15.93;;
14118;SDS011;7138;49.246;9.100;2024-01-15T06:38:21;37.40;;;15.35;;
14118;SDS011;7138;49.246;9.100;2024-01-15T06:40:49;34.17;;;15.55;;
14118;SDS011;7138;49.246;9.100;2024-01-15T06:43:16;36.95;;;14.63;;
14118;SDS011;7138;49.246;9.100;2024-01-15T06:45:42;36.00;;;14.48;;
14118;SDS011;7138;49.246;9.100;2024-01-15T06:48:08;30.60;;;13.98;;
14118;SDS011;7138;49.246;9.100;2024-01-15T06:50:34;35.88;;;15.07;;
14118;SDS011;7138;49.246;9.100;2024-01-15T06:53:00;31.63;;;14.95;;
14118;SDS011;7138;49.246;9.100;2024-01-15T06:55:26;40.38;;;15.93;;
14118;SDS011;7138;49.246;9.100;2024-01-15T06:57:54;40.10;;;16.55;;
14118;SDS011;7138;49.246;9.100;2024-01-15T07:00:20;42.78;;;18.38;;
14118;SDS011;7138;49.246;9.100;2024-01-15T07:02:46;44.05;;;18.55;;
14118;SDS011;7138;49.246;9.100;2024-01-15T07:05:12;39.20;;;16.90;;
14118;SDS011;7138;49.246;9.100;2024-01-15T07:07:37;37.53;;;17.65;;
14118;SDS011;7138;49.246;9.100;2024-01-15T07:10:03;36.33;;;15.75;;
14118;SDS011;7138;49.246;9.100;2024-01-15T07:12:31;33.78;;;14.80;;
14118;SDS011;7138;49.246;9.100;2024-01-15T07:14:59;36.22;;;14.93;;
14118;SDS011;7138;49.246;9.100;2024-01-15T07:17:24;36.33;;;14.80;;
14118;SDS011;7138;49.246;9.100;2024-01-15T07:19:50;31.83;;;14.23;;
14118;SDS011;7138;49.246;9.100;2024-01-15T07:22:16;31.88;;;13.15;;
14118;SDS011;7138;49.246;9.100;2024-01-15T07:24:42;31.25;;;14.00;;
14118;SDS011;7138;49.246;9.100;2024-01-15T07:27:08;33.13;;;14.32;;
14118;SDS011;7138;49.246;9.100;2024-01-15T07:29:34;31.17;;;12.77;;
14118;SDS011;7138;49.246;9.100;2024-01-15T07:32:05;27.60;;;12.63;;
14118;SDS011;7138;49.246;9.100;2024-01-15T07:34:32;30.63;;;14.77;;
14118;SDS011;7138;49.246;9.100;2024-01-15T07:36:58;38.08;;;14.98;;
14118;SDS011;7138;49.246;9.100;2024-01-15T07:39:24;30.80;;;14.82;;
14118;SDS011;7138;49.246;9.100;2024-01-15T07:41:50;36.67;;;14.40;;
14118;SDS011;7138;49.246;9.100;2024-01-15T07:44:16;31.85;;;15.38;;
14118;SDS011;7138;49.246;9.100;2024-01-15T07:46:43;38.15;;;16.80;;
14118;SDS011;7138;49.246;9.100;2024-01-15T07:49:11;34.60;;;14.43;;
14118;SDS011;7138;49.246;9.100;2024-01-15T07:51:38;32.55;;;14.40;;
14118;SDS011;7138;49.246;9.100;2024-01-15T07:54:05;33.42;;;15.50;;
14118;SDS011;7138;49.246;9.100;2024-01-15T07:56:32;34.33;;;15.18;;
14118;SDS011;7138;49.246;9.100;2024-01-15T07:58:58;34.53;;;14.00;;
14118;SDS011;7138;49.246;9.100;2024-01-15T08:01:24;31.77;;;13.93;;
14118;SDS011;7138;49.246;9.100;2024-01-15T08:03:50;31.55;;;13.88;;
14118;SDS011;7138;49.246;9.100;2024-01-15T08:06:18;34.10;;;15.10;;
14118;SDS011;7138;49.246;9.100;2024-01-15T08:08:44;30.95;;;14.80;;
14118;SDS011;7138;49.246;9.100;2024-01-15T08:11:10;31.25;;;14.43;;
14118;SDS011;7138;49.246;9.100;2024-01-15T08:13:36;34.55;;;15.18;;
14118;SDS011;7138;49.246;9.100;2024-01-15T08:16:02;30.65;;;14.00;;
14118;SDS011;7138;49.246;9.100;2024-01-15T08:18:28;34.25;;;14.35;;
14118;SDS011;7138;49.246;9.100;2024-01-15T08:20:53;31.17;;;14.45;;
14118;SDS011;7138;49.246;9.100;2024-01-15T08:23:20;32.80;;;14.90;;
14118;SDS011;7138;49.246;9.100;2024-01-15T08:25:47;31.08;;;13.88;;
14118;SDS011;7138;49.246;9.100;2024-01-15T08:28:12;30.42;;;12.93;;
14118;SDS011;7138;49.246;9.100;2024-01-15T08:30:38;30.15;;;14.85;;
14118;SDS011;7138;49.246;9.100;2024-01-15T08:33:04;32.33;;;13.75;;
14118;SDS011;7138;49.246;9.100;2024-01-15T08:35:30;28.02;;;14.30;;
14118;SDS011;7138;49.246;9.100;2024-01-15T08:37:56;33.05;;;14.73;;
14118;SDS011;7138;49.246;9.100;2024-01-15T08:40:24;32.90;;;14.40;;
14118;SDS011;7138;49.246;9.100;2024-01-15T08:42:50;32.70;;;14.60;;
14118;SDS011;7138;49.246;9.100;2024-01-15T08:45:16;31.08;;;13.70;;
14118;SDS011;7138;49.246;9.100;2024-01-15T08:47:42;34.78;;;15.50;;
14118;SDS011;7138;49.246;9.100;2024-01-15T08:50:08;32.25;;;14.20;;
14118;SDS011;7138;49.246;9.100;2024-01-15T08:52:37;35.35;;;15.13;;
14118;SDS011;7138;49.246;9.100;2024-01-15T08:55:03;31.75;;;13.45;;
14118;SDS011;7138;49.246;9.100;2024-01-15T08:57:31;32.10;;;13.50;;
14118;SDS011;7138;49.246;9.100;2024-01-15T08:59:57;31.35;;;14.38;;
14118;SDS011;7138;49.246;9.100;2024-01-15T09:02:23;33.50;;;14.75;;
14118;SDS011;7138;49.246;9.100;2024-01-15T09:04:49;31.45;;;14.32;;
14118;SDS011;7138;49.246;9.100;2024-01-15T09:07:15;34.55;;;15.60;;
14118;SDS011;7138;49.246;9.100;2024-01-15T09:09:41;35.42;;;15.35;;
14118;SDS011;7138;49.246;9.100;2024-01-15T09:12:07;39.13;;;17.20;;
14118;SDS011;7138;49.246;9.100;2024-01-15T09:14:35;35.53;;;16.60;;
14118;SDS011;7138;49.246;9.100;2024-01-15T09:17:01;36.83;;;15.55;;
14118;SDS011;7138;49.246;9.100;2024-01-15T09:19:28;36.28;;;15.02;;
14118;SDS011;7138;49.246;9.100;2024-01-15T09:21:54;35.10;;;15.30;;
14118;SDS011;7138;49.246;9.100;2024-01-15T09:24:20;29.85;;;14.63;;
14118;SDS011;7138;49.246;9.100;2024-01-15T09:26:46;31.38;;;14.75;;
14118;SDS011;7138;49.246;9.100;2024-01-15T09:29:12;33.03;;;15.55;;
14118;SDS011;7138;49.246;9.100;2024-01-15T09:31:42;34.63;;;16.20;;
14118;SDS011;7138;49.246;9.100;2024-01-15T09:34:08;35.70;;;15.10;;
14118;SDS011;7138;49.246;9.100;2024-01-15T09:36:38;31.08;;;13.88;;
14118;SDS011;7138;49.246;9.100;2024-01-15T09:39:05;32.30;;;15.10;;
14118;SDS011;7138;49.246;9.100;2024-01-15T09:41:33;33.92;;;15.20;;
14118;SDS011;7138;49.246;9.100;2024-01-15T09:44:00;32.38;;;15.90;;
14118;SDS011;7138;49.246;9.100;2024-01-15T09:46:27;32.67;;;14.02;;
14118;SDS011;7138;49.246;9.100;2024-01-15T09:48:54;32.53;;;15.38;;
14118;SDS011;7138;49.246;9.100;2024-01-15T09:51:20;32.67;;;15.70;;
14118;SDS011;7138;49.246;9.100;2024-01-15T09:53:47;35.53;;;15.48;;
14118;SDS011;7138;49.246;9.100;2024-01-15T09:56:14;35.25;;;15.20;;
14118;SDS011;7138;49.246;9.100;2024-01-15T09:58:41;31.42;;;14.68;;
14118;SDS011;7138;49.246;9.100;2024-01-15T10:01:07;36.78;;;15.52;;
14118;SDS011;7138;49.246;9.100;2024-01-15T10:03:33;30.63;;;14.75;;
14118;SDS011;7138;49.246;9.100;2024-01-15T10:06:01;32.50;;;15.88;;
14118;SDS011;7138;49.246;9.100;2024-01-15T10:08:28;29.58;;;13.68;;
14118;SDS011;7138;49.246;9.100;2024-01-15T10:10:53;29.20;;;13.23;;
14118;SDS011;7138;49.246;9.100;2024-01-15T10:13:19;28.58;;;14.23;;
14118;SDS011;7138;49.246;9.100;2024-01-15T10:15:47;30.77;;;14.32;;
14118;SDS011;7138;49.246;9.100;2024-01-15T10:18:13;29.08;;;13.98;;
14118;SDS011;7138;49.246;9.100;2024-01-15T10:20:39;30.63;;;14.55;;
14118;SDS011;7138;49.246;9.100;2024-01-15T10:23:06;29.77;;;14.52;;
14118;SDS011;7138;49.246;9.100;2024-01-15T10:25:32;30.63;;;13.98;;
14118;SDS011;7138;49.246;9.100;2024-01-15T10:28:01;34.53;;;15.77;;
14118;SDS011;7138;49.246;9.100;2024-01-15T10:30:29;31.38;;;15.02;;
14118;SDS011;7138;49.246;9.100;2024-01-15T10:32:57;31.58;;;14.50;;
14118;SDS011;7138;49.246;9.100;2024-01-15T10:35:26;33.15;;;14.25;;
14118;SDS011;7138;49.246;9.100;2024-01-15T10:37:53;32.60;;;14.70;;
14118;SDS011;7138;49.246;9.100;2024-01-15T10:40:21;35.28;;;15.10;;
14118;SDS011;7138;49.246;9.100;2024-01-15T10:42:46;32.42;;;15.45;;
14118;SDS011;7138;49.246;9.100;2024-01-15T10:45:13;32.80;;;15.00;;
14118;SDS011;7138;49.246;9.100;2024-01-15T10:47:39;30.60;;;14.65;;
14118;SDS011;7138;49.246;9.100;2024-01-15T10:50:06;28.85;;;14.40;;
14118;SDS011;7138;49.246;9.100;2024-01-15T10:52:33;31.52;;;14.93;;
14118;SDS011;7138;49.246;9.100;2024-01-15T10:55:00;28.00;;;13.85;;
14118;SDS011;7138;49.246;9.100;2024-01-15T10:57:29;33.65;;;14.60;;
14118;SDS011;7138;49.246;9.100;2024-01-15T10:59:55;31.30;;;14.43;;
14118;SDS011;7138;49.246;9.100;2024-01-15T11:02:21;31.42;;;13.80;;
14118;SDS011;7138;49.246;9.100;2024-01-15T11:04:49;32.67;;;14.07;;
14118;SDS011;7138;49.246;9.100;2024-01-15T11:07:14;30.40;;;14.68;;
14118;SDS011;7138;49.246;9.100;2024-01-15T11:09:40;27.02;;;13.60;;
14118;SDS011;7138;49.246;9.100;2024-01-15T11:12:07;30.40;;;13.30;;
14118;SDS011;7138;49.246;9.100;2024-01-15T11:14:38;30.15;;;14.77;;
14118;SDS011;7138;49.246;9.100;2024-01-15T11:17:05;27.55;;;13.77;;
14118;SDS011;7138;49.246;9.100;2024-01-15T11:19:37;31.88;;;13.30;;
14118;SDS011;7138;49.246;9.100;2024-01-15T11:22:06;27.98;;;13.93;;
14118;SDS011;7138;49.246;9.100;2024-01-15T11:24:34;29.00;;;13.30;;
14118;SDS011;7138;49.246;9.100;2024-01-15T11:27:01;26.08;;;12.57;;
14118;SDS011;7138;49.246;9.100;2024-01-15T11:29:29;26.00;;;12.93;;
14118;SDS011;7138;49.246;9.100;2024-01-15T11:32:02;32.25;;;13.35;;
14118;SDS011;7138;49.246;9.100;2024-01-15T11:37:17;28.95;;;12.88;;
14118;SDS011;7138;49.246;9.100;2024-01-15T11:39:43;29.33;;;12.45;;
14118;SDS011;7138;49.246;9.100;2024-01-15T11:42:10;26.35;;;12.38;;
14118;SDS011;7138;49.246;9.100;2024-01-15T11:44:37;27.70;;;13.15;;
14118;SDS011;7138;49.246;9.100;2024-01-15T11:47:05;27.10;;;12.98;;
14118;SDS011;7138;49.246;9.100;2024-01-15T11:49:37;25.63;;;11.43;;
14118;SDS011;7138;49.246;9.100;2024-01-15T11:52:26;27.48;;;12.75;;
14118;SDS011;7138;49.246;9.100;2024-01-15T11:54:59;30.77;;;13.32;;
14118;SDS011;7138;49.246;9.100;2024-01-15T12:00:09;26.95;;;13.13;;
14118;SDS011;7138;49.246;9.100;2024-01-15T12:02:39;30.92;;;12.48;;
14118;SDS011;7138;49.246;9.100;2024-01-15T12:05:06;29.88;;;12.40;;
14118;SDS011;7138;49.246;9.100;2024-01-15T12:07:33;30.27;;;13.60;;
14118;SDS011;7138;49.246;9.100;2024-01-15T12:09:59;26.95;;;13.02;;
14118;SDS011;7138;49.246;9.100;2024-01-15T12:12:27;28.80;;;12.88;;
14118;SDS011;7138;49.246;9.100;2024-01-15T12:15:07;27.55;;;12.30;;
14118;SDS011;7138;49.246;9.100;2024-01-15T12:17:34;24.67;;;12.45;;
14118;SDS011;7138;49.246;9.100;2024-01-15T12:20:01;26.30;;;12.30;;
14118;SDS011;7138;49.246;9.100;2024-01-15T12:22:28;27.58;;;12.90;;
14118;SDS011;7138;49.246;9.100;2024-01-15T12:24:53;24.55;;;10.55;;
14118;SDS011;7138;49.246;9.100;2024-01-15T12:27:19;26.75;;;11.98;;
14118;SDS011;7138;49.246;9.100;2024-01-15T12:29:46;24.38;;;11.52;;
14118;SDS011;7138;49.246;9.100;2024-01-15T12:32:12;23.05;;;10.85;;
14118;SDS011;7138;49.246;9.100;2024-01-15T12:34:38;24.98;;;12.27;;
14118;SDS011;7138;49.246;9.100;2024-01-15T12:37:07;26.85;;;12.07;;
14118;SDS011;7138;49.246;9.100;2024-01-15T12:39:33;24.25;;;11.05;;
14118;SDS011;7138;49.246;9.100;2024-01-15T12:42:00;22.77;;;12.07;;
14118;SDS011;7138;49.246;9.100;2024-01-15T12:44:27;21.38;;;11.35;;
14118;SDS011;7138;49.246;9.100;2024-01-15T12:46:53;20.13;;;11.02;;
14118;SDS011;7138;49.246;9.100;2024-01-15T12:49:20;21.80;;;10.70;;
14118;SDS011;7138;49.246;9.100;2024-01-15T12:51:51;24.73;;;11.77;;
14118;SDS011;7138;49.246;9.100;2024-01-15T12:54:19;22.50;;;10.23;;
14118;SDS011;7138;49.246;9.100;2024-01-15T12:56:45;20.85;;;11.00;;
14118;SDS011;7138;49.246;9.100;2024-01-15T12:59:11;22.42;;;11.13;;
14118;SDS011;7138;49.246;9.100;2024-01-15T13:01:37;18.70;;;10.30;;
14118;SDS011;7138;49.246;9.100;2024-01-15T13:04:04;21.35;;;11.18;;
14118;SDS011;7138;49.246;9.100;2024-01-15T13:06:33;22.13;;;11.18;;
14118;SDS011;7138;49.246;9.100;2024-01-15T13:08:59;19.52;;;10.50;;
14118;SDS011;7138;49.246;9.100;2024-01-15T13:11:26;19.92;;;10.02;;
14118;SDS011;7138;49.246;9.100;2024-01-15T13:13:52;18.30;;;10.55;;
14118;SDS011;7138;49.246;9.100;2024-01-15T13:16:18;19.13;;;10.88;;
14118;SDS011;7138;49.246;9.100;2024-01-15T13:18:45;17.35;;;9.32;;
14118;SDS011;7138;49.246;9.100;2024-01-15T13:21:11;17.38;;;9.13;;
14118;SDS011;7138;49.246;9.100;2024-01-15T13:23:37;18.33;;;10.05;;
14118;SDS011;7138;49.246;9.100;2024-01-15T13:26:04;17.08;;;9.48;;
14118;SDS011;7138;49.246;9.100;2024-01-15T13:28:31;15.75;;;8.80;;
14118;SDS011;7138;49.246;9.100;2024-01-15T13:30:57;19.45;;;9.55;;
14118;SDS011;7138;49.246;9.100;2024-01-15T13:33:23;17.58;;;9.45;;
14118;SDS011;7138;49.246;9.100;2024-01-15T13:35:49;16.20;;;9.30;;
14118;SDS011;7138;49.246;9.100;2024-01-15T13:38:15;16.60;;;9.88;;
14118;SDS011;7138;49.246;9.100;2024-01-15T13:40:41;18.40;;;9.10;;
14118;SDS011;7138;49.246;9.100;2024-01-15T13:43:07;15.82;;;8.85;;
14118;SDS011;7138;49.246;9.100;2024-01-15T13:45:34;15.55;;;8.82;;
14118;SDS011;7138;49.246;9.100;2024-01-15T13:48:02;23.30;;;7.60;;
14118;SDS011;7138;49.246;9.100;2024-01-15T13:50:30;15.00;;;8.27;;
14118;SDS011;7138;49.246;9.100;2024-01-15T13:52:56;16.45;;;8.27;;
14118;SDS011;7138;49.246;9.100;2024-01-15T13:55:22;16.58;;;8.68;;
14118;SDS011;7138;49.246;9.100;2024-01-15T13:57:48;13.60;;;8.07;;
14118;SDS011;7138;49.246;9.100;2024-01-15T14:00:14;15.45;;;8.05;;
14118;SDS011;7138;49.246;9.100;2024-01-15T14:02:45;16.02;;;8.20;;
14118;SDS011;7138;49.246;9.100;2024-01-15T14:05:11;15.95;;;7.82;;
14118;SDS011;7138;49.246;9.100;2024-01-15T14:07:37;14.05;;;8.10;;
14118;SDS011;7138;49.246;9.100;2024-01-15T14:10:04;16.15;;;8.43;;
14118;SDS011;7138;49.246;9.100;2024-01-15T14:12:33;17.13;;;8.43;;
14118;SDS011;7138;49.246;9.100;2024-01-15T14:14:59;15.68;;;8.13;;
14118;SDS011;7138;49.246;9.100;2024-01-15T14:17:25;14.88;;;8.55;;
14118;SDS011;7138;49.246;9.100;2024-01-15T14:19:53;13.27;;;7.93;;
14118;SDS011;7138;49.246;9.100;2024-01-15T14:22:19;14.50;;;8.00;;
14118;SDS011;7138;49.246;9.100;2024-01-15T14:24:45;14.25;;;8.13;;
14118;SDS011;7138;49.246;9.100;2024-01-15T14:27:11;14.65;;;7.97;;
14118;SDS011;7138;49.246;9.100;2024-01-15T14:29:37;15.13;;;8.30;;
14118;SDS011;7138;49.246;9.100;2024-01-15T14:32:03;13.93;;;8.32;;
14118;SDS011;7138;49.246;9.100;2024-01-15T14:34:29;16.65;;;8.75;;
14118;SDS011;7138;49.246;9.100;2024-01-15T14:36:57;14.35;;;8.18;;